Time;durP1;ratioP1;P1;durP2;ratioP2;P2;SDS_P1;SDS_P2;PMS_P1;PMS_P2;Temp;Humidity;BMP_temperature;BMP_pressure;BME280_temperature;BME280_humidity;BME280_pressure;Samples;Min_cycle;Max_cycle;Signal;HPM_P1;HPM_P2
2022/05/26 00:01:37;;;;;;;;;;;13.50;99.90;;;;;;5061181;28;20578;-57
2022/05/26 00:04:03;;;;;;;;;;;13.50;99.90;;;;;;5069528;28;19921;-51
2022/05/26 00:06:29;;;;;;;;;;;13.60;99.90;;;;;;5063973;28;19924;-55
2022/05/26 00:08:55;;;;;;;;;;;13.60;99.90;;;;;;5065486;28;20589;-52
2022/05/26 00:11:22;;;;;;;;;;;13.60;99.90;;;;;;5064434;28;20346;-54
2022/05/26 00:13:48;;;;;;;;;;;13.60;99.90;;;;;;5067380;28;19925;-55
2022/05/26 00:16:13;;;;;;;;;;;13.60;99.90;;;;;;5062655;28;20377;-51
2022/05/26 00:18:39;;;;;;;;;;;13.70;99.90;;;;;;5072125;28;20287;-48
2022/05/26 00:21:05;;;;;;;;;;;13.60;99.90;;;;;;5064448;28;20448;-54
2022/05/26 00:23:31;;;;;;;;;;;13.60;99.90;;;;;;5065403;28;20003;-56
2022/05/26 00:25:57;;;;;;;;;;;13.60;99.90;;;;;;5067289;28;19928;-53
2022/05/26 00:28:23;;;;;;;;;;;13.60;99.90;;;;;;5069809;28;19936;-54
2022/05/26 00:30:48;;;;;;;;;;;13.60;99.90;;;;;;5065392;28;19931;-50
2022/05/26 00:33:14;;;;;;;;;;;13.60;99.90;;;;;;5069068;28;21371;-55
2022/05/26 00:35:40;;;;;;;;;;;13.60;99.90;;;;;;5066643;28;20431;-55
2022/05/26 00:38:10;;;;;;;;;;;13.60;99.90;;;;;;5081191;28;19977;-55
2022/05/26 00:40:36;;;;;;;;;;;13.60;99.90;;;;;;5058463;28;20357;-55
2022/05/26 00:43:02;;;;;;;;;;;13.60;99.90;;;;;;5074036;28;20377;-55
2022/05/26 00:45:40;;;;;;;;;;;13.60;99.90;;;;;;5064316;28;20007;-56
2022/05/26 00:48:07;;;;;;;;;;;13.60;99.90;;;;;;5069029;28;20292;-55
2022/05/26 00:50:35;;;;;;;;;;;13.50;99.90;;;;;;5063732;28;19920;-55
2022/05/26 00:53:12;;;;;;;;;;;13.50;99.90;;;;;;5068346;28;20398;-56
2022/05/26 00:55:43;;;;;;;;;;;13.50;99.90;;;;;;5064496;28;19995;-46
2022/05/26 00:58:14;;;;;;;;;;;13.50;99.90;;;;;;5064214;28;19935;-55
2022/05/26 01:00:40;;;;;;;;;;;13.50;99.90;;;;;;5064331;28;20005;-58
2022/05/26 01:03:22;;;;;;;;;;;13.50;99.90;;;;;;5063082;28;19921;-56
2022/05/26 01:05:57;;;;;;;;;;;13.50;99.90;;;;;;5059150;28;19928;-56
2022/05/26 01:08:25;;;;;;;;;;;13.60;99.90;;;;;;5058829;28;19967;-56
2022/05/26 01:10:52;;;;;;;;;;;13.60;99.90;;;;;;5066698;28;19925;-56
2022/05/26 01:13:18;;;;;;;;;;;13.60;99.90;;;;;;5064866;28;20625;-56
2022/05/26 01:15:46;;;;;;;;;;;13.60;99.90;;;;;;5063122;28;19929;-56
2022/05/26 01:18:16;;;;;;;;;;;13.70;99.90;;;;;;5064178;28;20333;-56
2022/05/26 01:20:43;;;;;;;;;;;13.70;99.90;;;;;;5068902;28;20424;-55
2022/05/26 01:23:08;;;;;;;;;;;13.70;99.90;;;;;;5061629;28;19925;-56
2022/05/26 01:25:34;;;;;;;;;;;13.70;99.90;;;;;;5079717;28;19925;-51
2022/05/26 01:28:08;;;;;;;;;;;13.70;99.90;;;;;;5062951;28;19977;-51
2022/05/26 01:30:52;;;;;;;;;;;13.70;99.90;;;;;;5064906;28;19935;-57
2022/05/26 01:33:38;;;;;;;;;;;13.60;99.90;;;;;;5069228;28;19977;-55
2022/05/26 01:36:15;;;;;;;;;;;13.60;99.90;;;;;;5049205;28;19933;-55
2022/05/26 01:38:59;;;;;;;;;;;13.60;99.90;;;;;;5062456;28;19931;-54
2022/05/26 01:41:46;;;;;;;;;;;13.70;99.90;;;;;;5068310;28;20269;-52
2022/05/26 01:44:12;;;;;;;;;;;13.70;99.90;;;;;;5065354;28;19924;-55
2022/05/26 01:46:40;;;;;;;;;;;13.60;99.90;;;;;;5069241;28;20018;-52
2022/05/26 01:49:27;;;;;;;;;;;13.70;99.90;;;;;;5069444;28;20369;-55
2022/05/26 01:52:04;;;;;;;;;;;13.70;99.90;;;;;;5046510;28;20007;-55
2022/05/26 01:54:33;;;;;;;;;;;13.70;99.90;;;;;;5061750;28;19921;-55
2022/05/26 01:57:07;;;;;;;;;;;13.70;99.90;;;;;;5067545;28;19935;-55
2022/05/26 01:59:38;;;;;;;;;;;13.70;99.90;;;;;;5056153;28;19921;-55
2022/05/26 02:02:07;;;;;;;;;;;13.70;99.90;;;;;;5059328;28;22028;-49
2022/05/26 02:04:34;;;;;;;;;;;13.70;99.90;;;;;;5062013;28;19924;-53
2022/05/26 02:07:04;;;;;;;;;;;13.70;99.90;;;;;;5053550;28;19924;-54
2022/05/26 02:09:38;;;;;;;;;;;13.70;99.90;;;;;;5063580;28;19933;-52
2022/05/26 02:12:10;;;;;;;;;;;13.80;99.90;;;;;;5068745;28;20010;-56
2022/05/26 02:14:39;;;;;;;;;;;13.80;99.90;;;;;;5064225;28;19928;-56
2022/05/26 02:17:19;;;;;;;;;;;13.80;99.90;;;;;;5057905;28;19931;-55
2022/05/26 02:19:56;;;;;;;;;;;13.80;99.90;;;;;;5067462;28;19924;-48
2022/05/26 02:22:51;;;;;;;;;;;13.80;99.90;;;;;;5061294;28;19990;-52
2022/05/26 02:25:21;;;;;;;;;;;13.80;99.90;;;;;;5051386;28;19929;-55
2022/05/26 02:27:49;;;;;;;;;;;13.90;99.90;;;;;;5069843;28;19974;-53
2022/05/26 02:30:15;;;;;;;;;;;13.90;99.90;;;;;;5071084;28;20387;-48
2022/05/26 02:32:43;;;;;;;;;;;13.90;99.90;;;;;;5071091;28;19921;-52
2022/05/26 02:35:31;;;;;;;;;;;13.90;99.90;;;;;;5071173;28;19943;-53
2022/05/26 02:38:27;;;;;;;;;;;13.90;99.90;;;;;;5065267;28;19931;-53
2022/05/26 02:40:54;;;;;;;;;;;14.00;99.90;;;;;;5057217;28;20422;-54
2022/05/26 02:43:23;;;;;;;;;;;14.00;99.90;;;;;;5063879;28;20099;-53
2022/05/26 02:46:04;;;;;;;;;;;14.00;99.90;;;;;;5073302;28;19960;-54
2022/05/26 02:48:39;;;;;;;;;;;14.00;99.90;;;;;;5073437;28;20006;-52
2022/05/26 02:51:14;;;;;;;;;;;14.00;99.90;;;;;;5072764;28;19924;-47
2022/05/26 02:53:42;;;;;;;;;;;14.00;99.90;;;;;;5070366;28;20330;-51
2022/05/26 02:56:15;;;;;;;;;;;14.00;99.90;;;;;;5070109;28;19928;-49
2022/05/26 02:58:47;;;;;;;;;;;14.00;99.90;;;;;;5069121;28;19924;-52
2022/05/26 03:01:22;;;;;;;;;;;14.00;99.90;;;;;;5069412;28;20322;-51
2022/05/26 03:03:49;;;;;;;;;;;14.10;99.90;;;;;;5065783;28;19925;-53
2022/05/26 03:06:20;;;;;;;;;;;14.10;99.90;;;;;;5074034;28;20260;-51
2022/05/26 03:08:46;;;;;;;;;;;14.00;99.90;;;;;;5069445;28;19925;-54
2022/05/26 03:11:16;;;;;;;;;;;14.10;99.90;;;;;;5071113;28;20346;-53
2022/05/26 03:13:41;;;;;;;;;;;14.10;99.90;;;;;;5071869;28;20355;-53
2022/05/26 03:16:07;;;;;;;;;;;14.00;99.90;;;;;;5068859;28;19924;-51
2022/05/26 03:18:33;;;;;;;;;;;14.00;99.90;;;;;;5070858;28;20344;-52
2022/05/26 03:20:59;;;;;;;;;;;14.00;99.90;;;;;;5069937;28;19940;-50
2022/05/26 03:23:26;;;;;;;;;;;14.00;99.90;;;;;;5076626;28;19924;-53
2022/05/26 03:25:53;;;;;;;;;;;14.00;99.90;;;;;;5064395;28;19963;-53
2022/05/26 03:28:19;;;;;;;;;;;14.00;99.90;;;;;;5073128;28;19924;-51
2022/05/26 03:30:44;;;;;;;;;;;14.00;99.90;;;;;;5068876;28;19924;-49
2022/05/26 03:33:10;;;;;;;;;;;13.90;99.90;;;;;;5064344;28;20354;-52
2022/05/26 03:41:03;;;;;;;;;;;13.90;99.90;;;;;;5061208;28;19924;-51
2022/05/26 03:43:34;;;;;;;;;;;13.90;99.90;;;;;;5068630;28;20280;-51
2022/05/26 03:45:59;;;;;;;;;;;13.90;99.90;;;;;;5073232;28;20015;-52
2022/05/26 03:48:25;;;;;;;;;;;13.80;99.90;;;;;;5046795;28;20051;-51
2022/05/26 03:50:51;;;;;;;;;;;13.80;99.90;;;;;;5064422;28;19960;-51
2022/05/26 03:53:16;;;;;;;;;;;13.80;99.90;;;;;;5047268;28;20316;-52
2022/05/26 03:55:42;;;;;;;;;;;13.80;99.90;;;;;;5086044;28;20428;-51
2022/05/26 03:58:07;;;;;;;;;;;13.80;99.90;;;;;;5054527;28;20506;-52
2022/05/26 04:00:33;;;;;;;;;;;13.80;99.90;;;;;;5070755;28;20018;-52
2022/05/26 04:02:59;;;;;;;;;;;13.70;99.90;;;;;;5067686;28;19996;-49
2022/05/26 04:05:25;;;;;;;;;;;13.70;99.90;;;;;;5067342;28;20432;-50
2022/05/26 04:07:51;;;;;;;;;;;13.70;99.90;;;;;;5067717;28;19928;-49
2022/05/26 04:10:16;;;;;;;;;;;13.70;99.90;;;;;;5064613;28;19925;-48
2022/05/26 04:12:42;;;;;;;;;;;13.70;99.90;;;;;;5066600;28;20423;-51
2022/05/26 04:15:08;;;;;;;;;;;13.60;99.90;;;;;;5066257;28;19932;-51
2022/05/26 04:17:35;;;;;;;;;;;13.60;99.90;;;;;;5064825;28;19921;-53
2022/05/26 04:20:01;;;;;;;;;;;13.60;99.90;;;;;;5068330;28;19925;-50
2022/05/26 04:22:26;;;;;;;;;;;13.60;99.90;;;;;;5068077;28;19944;-52
2022/05/26 04:24:56;;;;;;;;;;;13.60;99.90;;;;;;5066283;28;20391;-52
2022/05/26 04:27:23;;;;;;;;;;;13.60;99.90;;;;;;5060336;28;19921;-51
2022/05/26 04:29:49;;;;;;;;;;;13.60;99.90;;;;;;5064499;28;19981;-53
2022/05/26 04:32:15;;;;;;;;;;;13.50;99.90;;;;;;5065108;28;20285;-53
2022/05/26 04:34:40;;;;;;;;;;;13.60;99.90;;;;;;5075772;28;20454;-48
2022/05/26 04:37:06;;;;;;;;;;;13.60;99.90;;;;;;5071374;28;19932;-49
2022/05/26 04:39:32;;;;;;;;;;;13.60;99.90;;;;;;5074261;28;19920;-52
2022/05/26 04:41:59;;;;;;;;;;;13.70;99.90;;;;;;5058252;28;20011;-51
2022/05/26 04:44:25;;;;;;;;;;;13.70;99.90;;;;;;5069731;28;20003;-53
2022/05/26 04:46:50;;;;;;;;;;;13.80;99.90;;;;;;5071056;28;19955;-51
2022/05/26 04:49:16;;;;;;;;;;;13.80;99.90;;;;;;5073733;28;19920;-50
2022/05/26 04:51:42;;;;;;;;;;;13.80;99.90;;;;;;5072157;28;19930;-51
2022/05/26 04:54:07;;;;;;;;;;;13.80;99.90;;;;;;5073587;28;19924;-51
2022/05/26 04:56:33;;;;;;;;;;;13.90;99.90;;;;;;5069843;28;20379;-51
2022/05/26 04:58:58;;;;;;;;;;;13.90;99.90;;;;;;5070590;28;19924;-50
2022/05/26 05:01:24;;;;;;;;;;;14.00;99.90;;;;;;5070023;28;20003;-50
2022/05/26 05:03:50;;;;;;;;;;;14.00;99.90;;;;;;5070489;28;19980;-53
2022/05/26 05:06:16;;;;;;;;;;;14.00;99.90;;;;;;5068745;28;19931;-47
2022/05/26 05:08:42;;;;;;;;;;;14.00;99.90;;;;;;5071203;28;19983;-51
2022/05/26 05:11:08;;;;;;;;;;;14.00;99.90;;;;;;5068207;28;19986;-52
2022/05/26 05:13:33;;;;;;;;;;;14.00;99.90;;;;;;5069807;28;19927;-52
2022/05/26 05:16:03;;;;;;;;;;;14.00;99.90;;;;;;5075168;28;19947;-52
2022/05/26 05:18:29;;;;;;;;;;;14.00;99.90;;;;;;5075125;28;20388;-52
2022/05/26 05:20:56;;;;;;;;;;;14.00;99.90;;;;;;5070798;28;19928;-51
2022/05/26 05:23:22;;;;;;;;;;;14.10;99.90;;;;;;5050503;28;19939;-53
2022/05/26 05:25:49;;;;;;;;;;;14.20;99.90;;;;;;5072654;28;19920;-53
2022/05/26 05:28:18;;;;;;;;;;;14.30;99.90;;;;;;5071697;28;19928;-52
2022/05/26 05:30:49;;;;;;;;;;;14.30;99.90;;;;;;5067355;28;20381;-53
2022/05/26 05:33:17;;;;;;;;;;;14.40;99.90;;;;;;5064992;28;20007;-52
2022/05/26 05:35:48;;;;;;;;;;;14.40;99.90;;;;;;5068145;28;19928;-53
2022/05/26 05:38:14;;;;;;;;;;;14.50;99.90;;;;;;5067026;28;19927;-52
2022/05/26 05:40:39;;;;;;;;;;;14.50;99.90;;;;;;5069464;28;19920;-50
2022/05/26 05:43:05;;;;;;;;;;;14.50;99.90;;;;;;5068879;28;20292;-52
2022/05/26 05:45:30;;;;;;;;;;;14.50;99.90;;;;;;5065766;28;19958;-51
2022/05/26 05:47:56;;;;;;;;;;;14.50;99.90;;;;;;5066200;28;19940;-48
2022/05/26 05:50:21;;;;;;;;;;;14.50;99.90;;;;;;5068393;28;19920;-53
2022/05/26 05:52:47;;;;;;;;;;;14.50;99.90;;;;;;5072676;28;20373;-50
2022/05/26 05:55:12;;;;;;;;;;;14.50;99.90;;;;;;5068665;28;19928;-52
2022/05/26 05:57:38;;;;;;;;;;;14.60;99.90;;;;;;5066753;28;19923;-52
2022/05/26 06:00:05;;;;;;;;;;;14.70;99.90;;;;;;5061817;28;19924;-52
2022/05/26 06:02:31;;;;;;;;;;;14.80;99.90;;;;;;5060750;28;20343;-50
2022/05/26 06:04:57;;;;;;;;;;;14.80;99.90;;;;;;5078180;28;19925;-52
2022/05/26 06:07:22;;;;;;;;;;;14.90;99.90;;;;;;5070608;28;19921;-50
2022/05/26 06:09:50;;;;;;;;;;;15.10;99.90;;;;;;5060834;28;21578;-51
2022/05/26 06:12:16;;;;;;;;;;;15.10;99.90;;;;;;5064803;28;20360;-54
2022/05/26 06:14:42;;;;;;;;;;;15.20;99.90;;;;;;5059731;28;20368;-53
2022/05/26 06:17:08;;;;;;;;;;;15.20;99.90;;;;;;5066583;28;20010;-54
2022/05/26 06:19:37;;;;;;;;;;;15.20;99.90;;;;;;5066675;28;19994;-52
2022/05/26 06:22:07;;;;;;;;;;;15.20;99.90;;;;;;5061972;28;20045;-53
2022/05/26 06:24:32;;;;;;;;;;;15.20;99.90;;;;;;5068827;28;19925;-51
2022/05/26 06:26:58;;;;;;;;;;;15.20;99.90;;;;;;5064064;28;19951;-53
2022/05/26 06:37:38;;;;;;;;;;;15.20;99.90;;;;;;5063960;28;19927;-54
2022/05/26 06:40:05;;;;;;;;;;;15.20;99.90;;;;;;5065022;28;19932;-51
2022/05/26 06:42:30;;;;;;;;;;;15.20;99.90;;;;;;5046303;28;20296;-50
2022/05/26 06:44:56;;;;;;;;;;;15.30;99.90;;;;;;5064176;28;19924;-53
2022/05/26 06:47:22;;;;;;;;;;;15.30;99.90;;;;;;5062739;28;19935;-52
2022/05/26 06:49:48;;;;;;;;;;;15.30;99.90;;;;;;5066200;28;19932;-54
2022/05/26 06:52:17;;;;;;;;;;;15.40;99.90;;;;;;5062279;28;19933;-48
2022/05/26 06:54:44;;;;;;;;;;;15.40;99.90;;;;;;5063056;28;20396;-53
2022/05/26 06:57:10;;;;;;;;;;;15.50;99.90;;;;;;5062852;28;19928;-48
2022/05/26 06:59:36;;;;;;;;;;;15.50;99.90;;;;;;5063900;28;20117;-53
2022/05/26 07:02:02;;;;;;;;;;;15.60;99.90;;;;;;5058603;28;20325;-50
2022/05/26 07:04:28;;;;;;;;;;;15.60;99.90;;;;;;5060817;28;19921;-54
2022/05/26 07:06:54;;;;;;;;;;;15.70;99.90;;;;;;5060207;28;19951;-52
2022/05/26 07:09:20;;;;;;;;;;;15.70;99.90;;;;;;5059600;28;20077;-53
2022/05/26 07:11:46;;;;;;;;;;;15.80;99.90;;;;;;5069168;28;19985;-54
2022/05/26 07:14:12;;;;;;;;;;;15.70;99.90;;;;;;5068211;28;19928;-54
2022/05/26 07:16:38;;;;;;;;;;;15.80;99.90;;;;;;5063270;28;19928;-54
2022/05/26 07:19:03;;;;;;;;;;;15.90;99.90;;;;;;5068592;28;19929;-52
2022/05/26 07:21:29;;;;;;;;;;;16.00;99.90;;;;;;5058441;28;19924;-47
2022/05/26 07:23:54;;;;;;;;;;;16.10;99.90;;;;;;5061608;28;19939;-54
2022/05/26 07:26:21;;;;;;;;;;;16.10;99.90;;;;;;5070714;28;19927;-50
2022/05/26 07:28:46;;;;;;;;;;;16.10;99.90;;;;;;5065398;28;20377;-54
2022/05/26 07:31:13;;;;;;;;;;;16.20;99.90;;;;;;5067108;28;19931;-51
2022/05/26 07:33:39;;;;;;;;;;;16.10;99.90;;;;;;5085635;28;19924;-53
2022/05/26 07:36:05;;;;;;;;;;;16.10;99.90;;;;;;5070349;28;19929;-54
2022/05/26 07:41:18;;;;;;;;;;;16.10;99.90;;;;;;5070646;28;19920;-53
2022/05/26 07:43:48;;;;;;;;;;;16.10;99.90;;;;;;5070948;28;19920;-52
2022/05/26 07:46:14;;;;;;;;;;;16.10;99.90;;;;;;5072628;28;19924;-53
2022/05/26 07:48:40;;;;;;;;;;;16.20;99.90;;;;;;5073640;28;19992;-55
2022/05/26 07:51:05;;;;;;;;;;;16.20;99.90;;;;;;5065449;28;20400;-53
2022/05/26 07:53:31;;;;;;;;;;;16.10;99.90;;;;;;5060113;28;21595;-55
2022/05/26 07:55:57;;;;;;;;;;;16.10;99.90;;;;;;5064788;28;19986;-52
2022/05/26 07:58:22;;;;;;;;;;;16.20;99.90;;;;;;5042645;28;19921;-52
2022/05/26 08:00:49;;;;;;;;;;;16.40;99.70;;;;;;5061569;28;19932;-50
2022/05/26 08:03:15;;;;;;;;;;;16.50;99.90;;;;;;5067097;28;19990;-50
2022/05/26 08:05:40;;;;;;;;;;;16.70;99.90;;;;;;5043736;28;19924;-54
2022/05/26 08:08:06;;;;;;;;;;;16.80;99.00;;;;;;5061945;28;19925;-56
2022/05/26 08:10:32;;;;;;;;;;;16.90;99.30;;;;;;5073052;28;19932;-54
2022/05/26 08:12:57;;;;;;;;;;;16.90;97.60;;;;;;5066743;28;19946;-53
2022/05/26 08:15:24;;;;;;;;;;;16.90;95.60;;;;;;5068052;28;19920;-54
2022/05/26 08:17:49;;;;;;;;;;;16.90;96.10;;;;;;5064890;28;19931;-54
2022/05/26 08:20:15;;;;;;;;;;;17.00;97.40;;;;;;5056428;28;20397;-54
2022/05/26 08:22:40;;;;;;;;;;;16.90;95.00;;;;;;5073988;28;19920;-55
2022/05/26 08:25:06;;;;;;;;;;;16.90;95.10;;;;;;5071815;28;19982;-54
2022/05/26 08:27:32;;;;;;;;;;;16.90;94.00;;;;;;5069618;28;19921;-54
2022/05/26 08:29:59;;;;;;;;;;;17.10;93.60;;;;;;5071362;28;19947;-50
2022/05/26 08:32:25;;;;;;;;;;;17.10;94.10;;;;;;5080351;28;20011;-55
2022/05/26 08:34:56;;;;;;;;;;;17.10;93.50;;;;;;5057726;28;19920;-54
2022/05/26 08:37:22;;;;;;;;;;;17.10;93.20;;;;;;5062006;28;19921;-55
2022/05/26 08:39:47;;;;;;;;;;;17.30;93.30;;;;;;5069399;28;19947;-55
2022/05/26 08:42:17;;;;;;;;;;;17.30;90.00;;;;;;5065509;28;19974;-54
2022/05/26 08:44:43;;;;;;;;;;;17.40;91.20;;;;;;5082754;28;19924;-52
2022/05/26 08:47:13;;;;;;;;;;;17.40;91.00;;;;;;5063256;28;19924;-55
2022/05/26 08:49:43;;;;;;;;;;;17.50;90.60;;;;;;5063514;28;20392;-55
2022/05/26 08:52:17;;;;;;;;;;;17.60;89.00;;;;;;5063302;28;19932;-54
2022/05/26 08:54:47;;;;;;;;;;;17.70;89.30;;;;;;5050938;28;19960;-50
2022/05/26 08:57:20;;;;;;;;;;;17.70;90.50;;;;;;5071550;28;20014;-52
2022/05/26 08:59:46;;;;;;;;;;;17.70;90.90;;;;;;5065426;28;19920;-54
2022/05/26 09:02:31;;;;;;;;;;;17.70;91.50;;;;;;5069619;28;20592;-54
2022/05/26 09:04:59;;;;;;;;;;;17.80;92.30;;;;;;5075452;28;19920;-53
2022/05/26 09:13:06;;;;;;;;;;;18.10;88.50;;;;;;5071428;28;19925;-54
2022/05/26 09:15:33;;;;;;;;;;;18.10;90.20;;;;;;5062707;28;20443;-54
2022/05/26 09:17:59;;;;;;;;;;;18.00;90.80;;;;;;5062147;28;19983;-53
2022/05/26 09:20:25;;;;;;;;;;;18.00;89.30;;;;;;5065608;28;19960;-54
2022/05/26 09:22:51;;;;;;;;;;;17.90;91.00;;;;;;5059374;28;19931;-51
2022/05/26 09:25:38;;;;;;;;;;;17.90;91.30;;;;;;5062485;28;19924;-54
2022/05/26 09:28:04;;;;;;;;;;;17.80;90.50;;;;;;5060377;28;19930;-51
2022/05/26 09:30:31;;;;;;;;;;;17.70;91.30;;;;;;5059506;28;19983;-53
2022/05/26 09:32:57;;;;;;;;;;;17.80;91.30;;;;;;5081535;28;20298;-53
2022/05/26 09:35:23;;;;;;;;;;;17.90;92.60;;;;;;5064434;28;19982;-55
2022/05/26 09:37:49;;;;;;;;;;;17.90;88.50;;;;;;5067126;28;20034;-54
2022/05/26 09:40:24;;;;;;;;;;;17.80;88.60;;;;;;5061245;28;19960;-53
2022/05/26 09:42:56;;;;;;;;;;;17.70;88.50;;;;;;5057990;28;19925;-54
2022/05/26 09:45:23;;;;;;;;;;;17.70;91.00;;;;;;5063164;28;19921;-54
2022/05/26 09:47:54;;;;;;;;;;;17.70;90.50;;;;;;5065436;28;19951;-51
2022/05/26 09:50:38;;;;;;;;;;;17.60;90.70;;;;;;5070781;28;19933;-50
2022/05/26 09:53:05;;;;;;;;;;;17.60;92.10;;;;;;5072438;28;19931;-57
2022/05/26 09:55:50;;;;;;;;;;;17.60;90.70;;;;;;5069283;28;19966;-54
2022/05/26 09:58:28;;;;;;;;;;;17.80;92.10;;;;;;5064944;28;20389;-56
2022/05/26 10:00:55;;;;;;;;;;;18.10;91.30;;;;;;5048087;28;20023;-48
2022/05/26 10:03:40;;;;;;;;;;;18.40;92.40;;;;;;5068528;28;19947;-54
2022/05/26 10:06:11;;;;;;;;;;;18.60;93.00;;;;;;5057215;28;19921;-55
2022/05/26 10:08:37;;;;;;;;;;;18.80;91.30;;;;;;5071975;28;19925;-55
2022/05/26 10:11:11;;;;;;;;;;;18.80;89.10;;;;;;5064272;28;19920;-55
2022/05/26 10:13:49;;;;;;;;;;;18.80;87.00;;;;;;5074869;28;19920;-54
2022/05/26 10:16:34;;;;;;;;;;;18.90;87.80;;;;;;5062705;28;19962;-56
2022/05/26 10:19:21;;;;;;;;;;;19.10;89.40;;;;;;5075668;28;19950;-55
2022/05/26 10:21:52;;;;;;;;;;;19.00;83.20;;;;;;5065755;28;19920;-56
2022/05/26 10:24:27;;;;;;;;;;;19.00;85.60;;;;;;5076684;28;19920;-54
2022/05/26 10:27:09;;;;;;;;;;;19.10;90.00;;;;;;5066807;28;19920;-56
2022/05/26 10:29:53;;;;;;;;;;;19.40;90.30;;;;;;5043294;28;19924;-53
2022/05/26 10:32:25;;;;;;;;;;;19.50;85.80;;;;;;5040195;28;20391;-55
2022/05/26 10:35:09;;;;;;;;;;;19.50;79.90;;;;;;5064910;28;19920;-56
2022/05/26 10:38:08;;;;;;;;;;;19.50;82.60;;;;;;5056062;28;19920;-56
2022/05/26 10:40:42;;;;;;;;;;;19.40;79.70;;;;;;5004127;28;19928;-51
2022/05/26 10:43:14;;;;;;;;;;;19.40;80.70;;;;;;5064323;28;19921;-56
2022/05/26 10:45:42;;;;;;;;;;;19.50;83.20;;;;;;5068876;28;19924;-56
2022/05/26 10:48:10;;;;;;;;;;;19.60;80.00;;;;;;5056970;28;20007;-56
2022/05/26 10:50:48;;;;;;;;;;;19.80;79.00;;;;;;5065771;28;19931;-56
2022/05/26 10:53:18;;;;;;;;;;;19.80;83.00;;;;;;5066879;28;19986;-55
2022/05/26 10:55:49;;;;;;;;;;;19.70;76.80;;;;;;5066296;28;20000;-53
2022/05/26 10:58:18;;;;;;;;;;;19.60;72.30;;;;;;5065458;28;20007;-57
2022/05/26 11:00:45;;;;;;;;;;;19.60;76.40;;;;;;5062182;28;20630;-54
2022/05/26 11:03:20;;;;;;;;;;;19.60;75.00;;;;;;5067719;28;19920;-57
2022/05/26 11:05:51;;;;;;;;;;;19.60;73.30;;;;;;5052901;28;19920;-56
2022/05/26 11:08:16;;;;;;;;;;;19.70;72.70;;;;;;5064409;28;19932;-58
2022/05/26 11:10:45;;;;;;;;;;;19.70;76.90;;;;;;5064949;28;20312;-58
2022/05/26 11:13:28;;;;;;;;;;;19.70;72.70;;;;;;5065463;28;19974;-58
2022/05/26 11:18:49;;;;;;;;;;;19.80;70.00;;;;;;5059036;28;20401;-57
2022/05/26 11:21:19;;;;;;;;;;;19.80;72.40;;;;;;5070709;28;20365;-56
2022/05/26 11:23:45;;;;;;;;;;;19.70;71.10;;;;;;5066871;28;20369;-57
2022/05/26 11:26:19;;;;;;;;;;;19.70;74.60;;;;;;5069977;28;19928;-57
2022/05/26 11:28:50;;;;;;;;;;;19.70;71.20;;;;;;5063188;28;19974;-57
2022/05/26 11:36:58;;;;;;;;;;;19.90;74.60;;;;;;5067623;28;20362;-57
2022/05/26 11:39:31;;;;;;;;;;;19.80;72.10;;;;;;5064055;28;20301;-57
2022/05/26 11:41:58;;;;;;;;;;;19.90;73.50;;;;;;5060171;28;19927;-58
2022/05/26 11:44:37;;;;;;;;;;;19.80;75.10;;;;;;5072055;28;20065;-53
2022/05/26 11:47:35;;;;;;;;;;;20.00;77.10;;;;;;5064497;28;19998;-55
2022/05/26 11:50:03;;;;;;;;;;;20.10;70.60;;;;;;5020093;28;20401;-56
2022/05/26 11:52:31;;;;;;;;;;;20.30;74.10;;;;;;5055376;28;19975;-57
2022/05/26 11:55:01;;;;;;;;;;;20.50;71.40;;;;;;5061047;28;19946;-57
2022/05/26 11:57:43;;;;;;;;;;;20.60;66.60;;;;;;5072254;28;19964;-57
2022/05/26 12:00:14;;;;;;;;;;;20.60;65.10;;;;;;5077645;28;20322;-51
2022/05/26 12:02:40;;;;;;;;;;;20.60;62.60;;;;;;5066931;28;19920;-57
2022/05/26 12:05:29;;;;;;;;;;;20.50;63.70;;;;;;5062781;28;20011;-57
2022/05/26 12:07:56;;;;;;;;;;;20.40;66.80;;;;;;5057648;28;19985;-54
2022/05/26 12:10:23;;;;;;;;;;;20.30;64.30;;;;;;5075478;28;20316;-57
2022/05/26 12:12:49;;;;;;;;;;;20.30;67.10;;;;;;5062395;28;19977;-56
2022/05/26 12:15:21;;;;;;;;;;;20.40;64.20;;;;;;5068143;28;19931;-58
2022/05/26 12:17:51;;;;;;;;;;;20.50;64.50;;;;;;5062056;28;19956;-57
2022/05/26 12:20:16;;;;;;;;;;;20.60;61.40;;;;;;5056806;28;19963;-51
2022/05/26 12:22:51;;;;;;;;;;;20.50;60.60;;;;;;5064985;28;19972;-59
2022/05/26 12:25:25;;;;;;;;;;;20.50;63.50;;;;;;5053404;28;20004;-55
2022/05/26 12:27:51;;;;;;;;;;;20.60;63.10;;;;;;5066518;28;19994;-55
2022/05/26 12:30:29;;;;;;;;;;;20.70;64.40;;;;;;5059755;28;19928;-56
2022/05/26 12:32:54;;;;;;;;;;;20.70;61.50;;;;;;5062554;28;19925;-52
2022/05/26 12:35:26;;;;;;;;;;;20.70;63.90;;;;;;5067112;28;19925;-57
2022/05/26 12:38:02;;;;;;;;;;;20.90;60.70;;;;;;5065822;28;19920;-56
2022/05/26 12:40:46;;;;;;;;;;;20.90;59.20;;;;;;5062597;28;20030;-55
2022/05/26 12:43:18;;;;;;;;;;;20.80;60.20;;;;;;5061813;28;19921;-57
2022/05/26 12:45:56;;;;;;;;;;;20.70;61.00;;;;;;5063489;28;19968;-57
2022/05/26 12:48:24;;;;;;;;;;;20.60;59.70;;;;;;5073545;28;19932;-57
2022/05/26 12:50:50;;;;;;;;;;;20.50;59.60;;;;;;5069569;28;19951;-54
2022/05/26 12:53:17;;;;;;;;;;;20.60;62.20;;;;;;5046102;28;20657;-57
2022/05/26 12:55:49;;;;;;;;;;;20.70;61.40;;;;;;5067715;28;19963;-56
2022/05/26 12:58:15;;;;;;;;;;;20.90;62.60;;;;;;5071140;28;19924;-55
2022/05/26 13:00:59;;;;;;;;;;;20.90;60.70;;;;;;5070531;28;19939;-52
2022/05/26 13:03:40;;;;;;;;;;;21.10;59.50;;;;;;5068570;28;19924;-54
2022/05/26 13:06:07;;;;;;;;;;;21.20;61.00;;;;;;5062646;28;19968;-56
2022/05/26 13:08:45;;;;;;;;;;;21.50;59.00;;;;;;5064289;28;19983;-61
2022/05/26 13:11:13;;;;;;;;;;;21.40;56.60;;;;;;5066663;28;20316;-56
2022/05/26 13:13:41;;;;;;;;;;;21.30;55.80;;;;;;5068157;28;19928;-58
2022/05/26 13:16:39;;;;;;;;;;;21.30;56.90;;;;;;5064098;28;19928;-57
2022/05/26 13:19:07;;;;;;;;;;;21.10;57.00;;;;;;5027711;28;20289;-57
2022/05/26 13:21:32;;;;;;;;;;;20.90;58.10;;;;;;5049767;28;19928;-56
2022/05/26 13:23:58;;;;;;;;;;;20.80;59.20;;;;;;5067839;28;19921;-56
2022/05/26 13:26:24;;;;;;;;;;;20.80;60.90;;;;;;5065151;28;20416;-56
2022/05/26 13:28:53;;;;;;;;;;;20.80;62.60;;;;;;5068502;28;20037;-56
2022/05/26 13:34:04;;;;;;;;;;;20.60;59.30;;;;;;5063890;28;19920;-56
2022/05/26 13:36:32;;;;;;;;;;;20.50;62.60;;;;;;5064059;28;20008;-50
2022/05/26 13:39:04;;;;;;;;;;;20.50;64.70;;;;;;5063614;28;20350;-56
2022/05/26 13:41:30;;;;;;;;;;;20.50;65.50;;;;;;5062529;28;19928;-49
2022/05/26 13:43:56;;;;;;;;;;;20.50;63.90;;;;;;5068143;28;19928;-56
2022/05/26 13:46:36;;;;;;;;;;;20.60;63.80;;;;;;5064258;28;20348;-56
2022/05/26 13:49:29;;;;;;;;;;;20.60;63.10;;;;;;5063482;28;19968;-57
2022/05/26 13:51:55;;;;;;;;;;;20.60;62.50;;;;;;5059740;28;19931;-56
2022/05/26 13:54:26;;;;;;;;;;;20.60;62.90;;;;;;5066758;28;19928;-55
2022/05/26 13:56:52;;;;;;;;;;;20.70;62.60;;;;;;5056614;28;19924;-56
2022/05/26 13:59:18;;;;;;;;;;;20.70;63.80;;;;;;5063568;28;20293;-57
2022/05/26 14:02:07;;;;;;;;;;;20.90;62.80;;;;;;5061723;28;19920;-50
2022/05/26 14:04:40;;;;;;;;;;;21.10;64.00;;;;;;5052469;28;19951;-54
2022/05/26 14:07:27;;;;;;;;;;;21.20;61.50;;;;;;5067115;28;19928;-56
2022/05/26 14:10:11;;;;;;;;;;;21.00;60.00;;;;;;5066980;28;19954;-56
2022/05/26 14:12:37;;;;;;;;;;;20.70;62.30;;;;;;5066694;28;20380;-50
2022/05/26 14:15:04;;;;;;;;;;;20.40;61.90;;;;;;5070170;28;20015;-56
2022/05/26 14:17:29;;;;;;;;;;;20.20;62.90;;;;;;5063554;28;19971;-49
2022/05/26 14:19:57;;;;;;;;;;;20.10;64.20;;;;;;5062613;28;20007;-55
2022/05/26 14:22:24;;;;;;;;;;;20.00;65.90;;;;;;5066304;28;19920;-56
2022/05/26 14:24:53;;;;;;;;;;;20.00;67.30;;;;;;5063426;28;19921;-55
2022/05/26 14:27:22;;;;;;;;;;;20.00;67.80;;;;;;5064955;28;19920;-55
2022/05/26 14:29:49;;;;;;;;;;;19.90;68.00;;;;;;5067649;28;19932;-52
2022/05/26 14:32:14;;;;;;;;;;;19.90;68.00;;;;;;5062304;28;20424;-55
2022/05/26 14:34:43;;;;;;;;;;;19.70;70.60;;;;;;5065338;28;20024;-55
2022/05/26 14:37:09;;;;;;;;;;;19.70;71.40;;;;;;5073489;28;19974;-56
2022/05/26 14:39:35;;;;;;;;;;;19.60;71.50;;;;;;5067334;28;19939;-56
2022/05/26 14:42:01;;;;;;;;;;;19.50;72.40;;;;;;5067210;28;19929;-54
2022/05/26 14:44:26;;;;;;;;;;;19.50;73.10;;;;;;5061626;28;19921;-55
2022/05/26 14:46:52;;;;;;;;;;;19.40;73.90;;;;;;5058298;28;19924;-51
2022/05/26 14:49:18;;;;;;;;;;;19.30;73.90;;;;;;5060820;28;19995;-56
2022/05/26 14:51:46;;;;;;;;;;;19.30;74.80;;;;;;5057264;28;20540;-56
2022/05/26 14:56:56;;;;;;;;;;;19.40;76.50;;;;;;5066736;28;19983;-55
2022/05/26 14:59:21;;;;;;;;;;;19.60;76.40;;;;;;5062746;28;19976;-56
2022/05/26 15:01:47;;;;;;;;;;;19.60;75.70;;;;;;5059212;28;20495;-55
2022/05/26 15:04:13;;;;;;;;;;;19.40;74.60;;;;;;5057921;28;20003;-55
2022/05/26 15:06:44;;;;;;;;;;;19.30;76.20;;;;;;5065840;28;19931;-56